createdAt,value
2023-09-12T00:00:32.471Z,11.79
2023-09-12T00:01:32.479Z,11.77
2023-09-12T00:02:32.487Z,11.77
2023-09-12T00:03:32.561Z,11.77
2023-09-12T00:04:32.530Z,11.75
2023-09-12T00:05:32.479Z,11.73
2023-09-12T00:06:32.516Z,11.69
2023-09-12T00:07:32.443Z,11.68
2023-09-12T00:08:32.475Z,11.62
2023-09-12T00:09:32.552Z,11.79
2023-09-12T00:10:32.524Z,11.78
2023-09-12T00:11:32.483Z,11.77
2023-09-12T00:12:32.511Z,11.83
2023-09-12T00:13:32.528Z,11.93
2023-09-12T00:14:32.484Z,11.86
2023-09-12T00:15:32.560Z,11.87
2023-09-12T00:16:32.532Z,11.87
2023-09-12T00:17:32.546Z,11.76
2023-09-12T00:18:32.540Z,11.74
2023-09-12T00:19:32.542Z,11.8
2023-09-12T00:20:32.538Z,11.81
2023-09-12T00:21:32.561Z,11.83
2023-09-12T00:22:32.516Z,11.83
2023-09-12T00:23:32.534Z,11.83
2023-09-12T00:24:32.619Z,11.82
2023-09-12T00:25:32.536Z,11.85
2023-09-12T00:26:32.535Z,11.83
2023-09-12T00:27:32.582Z,11.85
2023-09-12T00:28:32.532Z,11.8
2023-09-12T00:29:32.557Z,11.75
2023-09-12T00:30:32.589Z,11.73
2023-09-12T00:31:32.590Z,11.67
2023-09-12T00:32:32.575Z,11.63
2023-09-12T00:33:32.699Z,11.7
2023-09-12T00:34:32.564Z,11.64
2023-09-12T00:35:32.609Z,11.64
2023-09-12T00:36:32.639Z,11.63
2023-09-12T00:37:32.588Z,11.55
2023-09-12T00:38:32.609Z,11.61
2023-09-12T00:39:32.653Z,11.65
2023-09-12T00:40:32.637Z,11.69
2023-09-12T00:41:32.562Z,11.7
2023-09-12T00:42:32.631Z,11.68
2023-09-12T00:43:32.606Z,11.67
2023-09-12T00:44:32.547Z,11.78
2023-09-12T00:45:32.822Z,11.73
2023-09-12T00:46:32.618Z,11.53
2023-09-12T00:47:32.683Z,11.5
2023-09-12T00:48:32.688Z,11.4
2023-09-12T00:49:32.625Z,11.54
2023-09-12T00:50:32.701Z,11.72
2023-09-12T00:51:32.668Z,11.75
2023-09-12T00:52:32.653Z,11.84
2023-09-12T00:53:32.603Z,11.82
2023-09-12T00:54:32.683Z,11.77
2023-09-12T00:55:32.665Z,11.86
2023-09-12T00:56:32.651Z,11.87
2023-09-12T00:57:32.694Z,11.89
2023-09-12T00:58:32.621Z,11.92
2023-09-12T00:59:32.684Z,11.94
2023-09-12T01:00:32.746Z,11.9
2023-09-12T01:01:32.739Z,11.93
2023-09-12T01:02:32.772Z,11.9
2023-09-12T01:03:32.756Z,11.94
2023-09-12T01:04:35.334Z,11.95
2023-09-12T01:05:32.715Z,11.97
2023-09-12T01:06:32.711Z,11.97
2023-09-12T01:07:32.665Z,11.94
2023-09-12T01:08:32.732Z,11.93
2023-09-12T01:09:32.809Z,11.96
2023-09-12T01:10:32.731Z,11.98
2023-09-12T01:11:32.713Z,12
2023-09-12T01:12:32.879Z,11.95
2023-09-12T01:13:32.733Z,12.01
2023-09-12T01:14:32.706Z,11.96
2023-09-12T01:15:32.746Z,11.96
2023-09-12T01:16:32.782Z,11.98
2023-09-12T01:17:32.759Z,11.96
2023-09-12T01:18:32.853Z,11.92
2023-09-12T01:19:32.752Z,11.93
2023-09-12T01:20:32.760Z,11.91
2023-09-12T01:21:32.789Z,11.93
2023-09-12T01:22:32.749Z,11.91
2023-09-12T01:23:32.771Z,11.92
2023-09-12T01:24:32.883Z,11.92
2023-09-12T01:25:32.753Z,11.95
2023-09-12T01:26:32.777Z,11.92
2023-09-12T01:27:32.798Z,11.99
2023-09-12T01:28:32.750Z,11.98
2023-09-12T01:29:32.789Z,11.98
2023-09-12T01:30:32.888Z,12.01
2023-09-12T01:31:32.836Z,11.99
2023-09-12T01:32:32.843Z,11.97
2023-09-12T01:33:32.894Z,11.95
2023-09-12T01:34:32.819Z,11.99
2023-09-12T01:35:32.853Z,11.96
2023-09-12T01:36:33.139Z,11.95
2023-09-12T01:37:32.836Z,11.97
2023-09-12T01:38:32.834Z,11.75
2023-09-12T01:39:32.878Z,11.83
2023-09-12T01:40:32.820Z,11.66
2023-09-12T01:41:32.870Z,11.68
2023-09-12T01:42:32.862Z,11.83
2023-09-12T01:43:32.867Z,11.93
2023-09-12T01:44:32.877Z,11.85
2023-09-12T01:45:32.923Z,11.87
2023-09-12T01:46:32.907Z,11.81
2023-09-12T01:47:32.894Z,11.92
2023-09-12T01:48:32.962Z,11.9
2023-09-12T01:49:32.848Z,11.82
2023-09-12T01:50:32.864Z,11.75
2023-09-12T01:51:32.988Z,11.71
2023-09-12T01:52:32.921Z,11.58
2023-09-12T01:53:32.895Z,11.54
2023-09-12T01:54:32.906Z,11.48
2023-09-12T01:55:32.939Z,11.56
2023-09-12T01:56:32.916Z,11.68
2023-09-12T01:57:32.956Z,11.75
2023-09-12T01:58:32.895Z,11.69
2023-09-12T01:59:32.920Z,11.69
2023-09-12T02:00:32.965Z,11.77
2023-09-12T02:01:32.965Z,11.79
2023-09-12T02:02:32.917Z,11.82
2023-09-12T02:03:33.044Z,11.85
2023-09-12T02:04:32.944Z,11.88
2023-09-12T02:05:32.975Z,11.86
2023-09-12T02:06:33.015Z,11.84
2023-09-12T02:07:32.954Z,11.81
2023-09-12T02:08:32.913Z,11.8
2023-09-12T02:09:33.007Z,11.82
2023-09-12T02:10:32.994Z,11.86
2023-09-12T02:11:32.982Z,11.88
2023-09-12T02:12:32.979Z,11.89
2023-09-12T02:13:32.978Z,11.89
2023-09-12T02:14:32.986Z,11.88
2023-09-12T02:15:33.145Z,11.88
2023-09-12T02:16:33.130Z,11.89
2023-09-12T02:17:33.245Z,11.86
2023-09-12T02:18:33.035Z,11.84
2023-09-12T02:19:33.032Z,11.82
2023-09-12T02:20:33.066Z,11.87
2023-09-12T02:21:33.034Z,11.89
2023-09-12T02:22:33.047Z,11.9
2023-09-12T02:23:33.007Z,11.92
2023-09-12T02:24:33.085Z,11.94
2023-09-12T02:25:33.020Z,11.85
2023-09-12T02:26:33.030Z,11.87
2023-09-12T02:27:33.053Z,11.86
2023-09-12T02:28:33.039Z,11.82
2023-09-12T02:29:33.030Z,11.75
2023-09-12T02:30:33.064Z,11.74
2023-09-12T02:31:33.065Z,11.81
2023-09-12T02:32:33.067Z,11.79
2023-09-12T02:33:33.148Z,11.78
2023-09-12T02:34:33.043Z,11.78
2023-09-12T02:35:33.108Z,11.76
2023-09-12T02:36:33.089Z,11.73
2023-09-12T02:37:33.125Z,11.71
2023-09-12T02:38:33.127Z,11.65
2023-09-12T02:39:33.139Z,11.66
2023-09-12T02:40:33.105Z,11.65
2023-09-12T02:41:33.093Z,11.55
2023-09-12T02:42:33.175Z,11.61
2023-09-12T02:43:33.100Z,11.62
2023-09-12T02:44:33.113Z,11.64
2023-09-12T02:45:33.179Z,11.59
2023-09-12T02:46:33.120Z,11.66
2023-09-12T02:47:33.143Z,11.69
2023-09-12T02:48:33.176Z,11.73
2023-09-12T02:49:33.136Z,11.68
2023-09-12T02:50:33.119Z,11.61
2023-09-12T02:51:33.191Z,11.69
2023-09-12T02:52:33.152Z,11.72
2023-09-12T02:53:33.099Z,11.67
2023-09-12T02:54:33.189Z,11.53
2023-09-12T02:55:33.166Z,11.6
2023-09-12T02:56:33.148Z,11.54
2023-09-12T02:57:33.227Z,11.59
2023-09-12T02:58:33.108Z,11.76
2023-09-12T02:59:33.181Z,11.72
2023-09-12T03:00:33.218Z,11.68
2023-09-12T03:01:33.337Z,11.63
2023-09-12T03:02:33.270Z,11.62
2023-09-12T03:03:33.310Z,11.6
2023-09-12T03:04:33.209Z,11.53
2023-09-12T03:05:33.201Z,11.57
2023-09-12T03:06:33.175Z,11.58
2023-09-12T03:07:33.214Z,11.57
2023-09-12T03:08:33.224Z,11.57
2023-09-12T03:09:33.228Z,11.43
2023-09-12T03:10:33.257Z,11.31
2023-09-12T03:11:33.207Z,11.46
2023-09-12T03:12:33.290Z,11.47
2023-09-12T03:13:33.245Z,11.58
2023-09-12T03:14:33.236Z,11.62
2023-09-12T03:15:33.359Z,11.6
2023-09-12T03:16:33.310Z,11.56
2023-09-12T03:17:33.303Z,11.53
2023-09-12T03:18:33.279Z,11.46
2023-09-12T03:19:33.245Z,11.6
2023-09-12T03:20:33.314Z,11.62
2023-09-12T03:21:33.288Z,11.54
2023-09-12T03:22:33.280Z,11.56
2023-09-12T03:23:33.275Z,11.49
2023-09-12T03:24:33.331Z,11.46
2023-09-12T03:25:33.256Z,11.55
2023-09-12T03:26:33.252Z,11.58
2023-09-12T03:27:33.286Z,11.62
2023-09-12T03:28:33.313Z,11.58
2023-09-12T03:29:33.310Z,11.61
2023-09-12T03:30:33.330Z,11.46
2023-09-12T03:31:33.342Z,11.45
2023-09-12T03:32:33.294Z,11.43
2023-09-12T03:33:33.423Z,11.47
2023-09-12T03:34:33.336Z,11.44
2023-09-12T03:35:33.359Z,11.35
2023-09-12T03:36:33.401Z,11.48
2023-09-12T03:37:33.375Z,11.46
2023-09-12T03:38:33.317Z,11.35
2023-09-12T03:39:33.366Z,11.55
2023-09-12T03:40:33.383Z,11.6
2023-09-12T03:41:33.355Z,11.33
2023-09-12T03:42:42.293Z,11.4
2023-09-12T03:43:33.357Z,11.59
2023-09-12T03:44:33.336Z,11.58
2023-09-12T03:45:33.400Z,11.38
2023-09-12T03:46:33.377Z,11.45
2023-09-12T03:47:33.381Z,11.44
2023-09-12T03:48:33.450Z,11.42
2023-09-12T03:49:33.400Z,11.55
2023-09-12T03:50:33.406Z,11.6
2023-09-12T03:51:33.423Z,11.54
2023-09-12T03:52:33.406Z,11.45
2023-09-12T03:53:33.356Z,11.51
2023-09-12T03:54:33.371Z,11.51
2023-09-12T03:55:33.410Z,11.49
2023-09-12T03:56:33.344Z,11.47
2023-09-12T03:57:33.418Z,11.53
2023-09-12T03:58:33.420Z,11.48
2023-09-12T03:59:33.424Z,11.54
2023-09-12T04:00:33.490Z,11.54
2023-09-12T04:01:33.502Z,11.52
2023-09-12T04:02:33.424Z,11.55
2023-09-12T04:03:33.556Z,11.56
2023-09-12T04:04:33.555Z,11.55
2023-09-12T04:05:33.507Z,11.56
2023-09-12T04:06:33.497Z,11.57
2023-09-12T04:07:33.452Z,11.55
2023-09-12T04:08:33.467Z,11.5
2023-09-12T04:09:33.478Z,11.51
2023-09-12T04:10:33.457Z,11.56
2023-09-12T04:11:45.560Z,11.62
2023-09-12T04:12:33.552Z,11.57
2023-09-12T04:13:33.486Z,11.66
2023-09-12T04:14:33.467Z,11.67
2023-09-12T04:15:33.536Z,11.68
2023-09-12T04:16:33.505Z,11.66
2023-09-12T04:17:33.548Z,11.7
2023-09-12T04:18:33.586Z,11.69
2023-09-12T04:19:33.520Z,11.63
2023-09-12T04:20:33.537Z,11.58
2023-09-12T04:21:33.548Z,11.46
2023-09-12T04:22:33.493Z,11.56
2023-09-12T04:23:33.488Z,11.65
2023-09-12T04:24:33.589Z,11.64
2023-09-12T04:25:33.551Z,11.71
2023-09-12T04:26:33.498Z,11.6
2023-09-12T04:27:33.529Z,11.44
2023-09-12T04:28:33.552Z,11.53
2023-09-12T04:29:33.534Z,11.68
2023-09-12T04:30:33.599Z,11.53
2023-09-12T04:31:33.612Z,11.44
2023-09-12T04:32:33.595Z,11.55
2023-09-12T04:33:33.611Z,11.54
2023-09-12T04:34:33.526Z,11.48
2023-09-12T04:35:33.596Z,11.48
2023-09-12T04:36:33.614Z,11.51
2023-09-12T04:37:33.539Z,11.61
2023-09-12T04:38:33.577Z,11.55
2023-09-12T04:39:33.609Z,11.59
2023-09-12T04:40:33.578Z,11.55
2023-09-12T04:41:33.594Z,11.57
2023-09-12T04:42:33.635Z,11.52
2023-09-12T04:43:33.625Z,11.51
2023-09-12T04:44:33.581Z,11.58
2023-09-12T04:45:33.638Z,11.63
2023-09-12T04:46:33.629Z,11.68
2023-09-12T04:47:33.650Z,11.65
2023-09-12T04:48:33.683Z,11.58
2023-09-12T04:49:33.641Z,11.55
2023-09-12T04:50:33.651Z,11.44
2023-09-12T04:51:33.658Z,11.52
2023-09-12T04:52:34.392Z,11.45
2023-09-12T04:53:33.597Z,11.38
2023-09-12T04:54:33.669Z,11.51
2023-09-12T04:55:33.699Z,11.42
2023-09-12T04:56:33.617Z,11.44
2023-09-12T04:57:33.686Z,11.46
2023-09-12T04:58:33.661Z,11.43
2023-09-12T04:59:33.644Z,11.46
2023-09-12T05:00:33.744Z,11.5
2023-09-12T05:01:33.782Z,11.54
2023-09-12T05:02:33.711Z,11.52
2023-09-12T05:03:33.726Z,11.69
2023-09-12T05:04:33.711Z,11.73
2023-09-12T05:05:33.733Z,11.65
2023-09-12T05:06:33.768Z,11.65
2023-09-12T05:07:33.676Z,11.57
2023-09-12T05:08:33.701Z,11.52
2023-09-12T05:09:33.754Z,11.52
2023-09-12T05:10:33.704Z,11.56
2023-09-12T05:11:33.705Z,11.58
2023-09-12T05:12:33.791Z,11.82
2023-09-12T05:13:33.738Z,11.85
2023-09-12T05:14:33.726Z,11.85
2023-09-12T05:15:33.757Z,11.86
2023-09-12T05:16:33.750Z,11.84
2023-09-12T05:17:33.749Z,11.83
2023-09-12T05:18:33.782Z,11.81
2023-09-12T05:19:33.752Z,11.71
2023-09-12T05:20:33.762Z,11.71
2023-09-12T05:21:33.793Z,11.79
2023-09-12T05:22:33.770Z,11.84
2023-09-12T05:23:33.723Z,11.78
2023-09-12T05:24:33.837Z,11.81
2023-09-12T05:25:33.805Z,11.83
2023-09-12T05:26:33.784Z,11.88
2023-09-12T05:27:33.831Z,11.93
2023-09-12T05:28:33.760Z,11.9
2023-09-12T05:29:33.810Z,11.91
2023-09-12T05:30:33.845Z,11.95
2023-09-12T05:31:33.873Z,11.99
2023-09-12T05:32:33.879Z,12.08
2023-09-12T05:33:34.210Z,12.07
2023-09-12T05:34:33.793Z,12.05
2023-09-12T05:35:33.823Z,12.15
2023-09-12T05:36:33.854Z,12.18
2023-09-12T05:37:33.813Z,12.23
2023-09-12T05:38:33.826Z,12.22
2023-09-12T05:39:33.839Z,12.27
2023-09-12T05:40:33.843Z,12.37
2023-09-12T05:41:33.828Z,12.5
2023-09-12T05:42:33.874Z,12.58
2023-09-12T05:43:33.871Z,12.49
2023-09-12T05:44:34.138Z,12.54
2023-09-12T05:45:34.107Z,12.64
2023-09-12T05:46:33.883Z,12.69
2023-09-12T05:47:33.919Z,12.57
2023-09-12T05:48:33.892Z,12.52
2023-09-12T05:49:33.888Z,12.46
2023-09-12T05:50:33.871Z,12.44
2023-09-12T05:51:33.954Z,12.43
2023-09-12T05:52:33.886Z,12.34
2023-09-12T05:53:33.857Z,12.31
2023-09-12T05:54:33.943Z,12.35
2023-09-12T05:55:33.957Z,12.38
2023-09-12T05:56:33.914Z,12.48
2023-09-12T05:57:33.942Z,12.57
2023-09-12T05:58:33.916Z,12.62
2023-09-12T05:59:33.937Z,12.66
2023-09-12T06:00:34.012Z,12.57
2023-09-12T06:01:33.956Z,12.7
2023-09-12T06:02:33.941Z,12.63
2023-09-12T06:03:34.052Z,12.58
2023-09-12T06:04:34.091Z,12.71
2023-09-12T06:05:33.981Z,12.69
2023-09-12T06:06:33.986Z,12.82
2023-09-12T06:07:33.920Z,12.9
2023-09-12T06:08:33.960Z,12.9
2023-09-12T06:09:33.950Z,12.86
2023-09-12T06:10:34.024Z,12.89
2023-09-12T06:11:33.981Z,12.84
2023-09-12T06:12:34.076Z,12.83
2023-09-12T06:13:33.990Z,12.86
2023-09-12T06:14:33.959Z,12.89
2023-09-12T06:15:34.050Z,12.7
2023-09-12T06:16:34.012Z,12.48
2023-09-12T06:17:34.120Z,12.68
2023-09-12T06:18:34.048Z,12.58
2023-09-12T06:19:34.026Z,12.56
2023-09-12T06:20:34.002Z,12.64
2023-09-12T06:21:34.078Z,12.52
2023-09-12T06:22:33.986Z,12.67
2023-09-12T06:23:34.033Z,12.59
2023-09-12T06:24:34.079Z,12.62
2023-09-12T06:25:34.060Z,12.69
2023-09-12T06:26:34.031Z,12.54
2023-09-12T06:27:34.100Z,12.51
2023-09-12T06:28:34.033Z,12.68
2023-09-12T06:29:34.065Z,12.64
2023-09-12T06:30:34.112Z,12.74
2023-09-12T06:31:34.100Z,12.83
2023-09-12T06:32:34.118Z,12.96
2023-09-12T06:33:34.120Z,12.89
2023-09-12T06:34:34.056Z,12.75
2023-09-12T06:35:34.113Z,12.76
2023-09-12T06:36:34.087Z,12.6
2023-09-12T06:37:34.095Z,12.62
2023-09-12T06:38:34.097Z,12.66
2023-09-12T06:39:34.103Z,12.71
2023-09-12T06:40:34.092Z,12.73
2023-09-12T06:41:34.080Z,12.74
2023-09-12T06:42:34.164Z,12.71
2023-09-12T06:43:34.086Z,12.75
2023-09-12T06:44:34.123Z,12.8
2023-09-12T06:45:34.164Z,12.7
2023-09-12T06:46:34.188Z,12.71
2023-09-12T06:47:34.174Z,12.81
2023-09-12T06:48:34.170Z,12.98
2023-09-12T06:49:35.553Z,13
2023-09-12T06:50:35.338Z,13.06
2023-09-12T06:51:38.384Z,13.15
2023-09-12T06:52:34.137Z,13.01
2023-09-12T06:53:34.162Z,13.17
2023-09-12T06:54:34.209Z,13.07
2023-09-12T06:55:34.161Z,13.06
2023-09-12T06:56:34.171Z,13.22
2023-09-12T06:57:34.219Z,13.35
2023-09-12T06:58:34.143Z,13.24
2023-09-12T06:59:34.160Z,13.03
2023-09-12T07:00:34.307Z,13.14
2023-09-12T07:01:34.232Z,12.93
2023-09-12T07:02:34.241Z,12.95
2023-09-12T07:03:34.253Z,12.99
2023-09-12T07:04:34.220Z,13
2023-09-12T07:05:34.257Z,13.12
2023-09-12T07:06:34.342Z,12.99
2023-09-12T07:07:34.209Z,12.89
2023-09-12T07:08:34.217Z,12.89
2023-09-12T07:09:34.269Z,12.86
2023-09-12T07:10:34.247Z,13.18
2023-09-12T07:11:34.212Z,13.07
2023-09-12T07:12:34.247Z,13.09
2023-09-12T07:13:34.173Z,13.13
2023-09-12T07:14:34.207Z,13.08
2023-09-12T07:15:34.315Z,13.3
2023-09-12T07:16:34.289Z,13.35
2023-09-12T07:17:34.256Z,13.15
2023-09-12T07:18:34.293Z,13.07
2023-09-12T07:19:34.270Z,13.17
2023-09-12T07:20:34.288Z,13.09
2023-09-12T07:21:34.278Z,12.83
2023-09-12T07:22:34.274Z,12.93
2023-09-12T07:23:34.269Z,12.71
2023-09-12T07:24:34.290Z,13.07
2023-09-12T07:25:34.282Z,12.97
2023-09-12T07:26:34.284Z,12.77
2023-09-12T07:27:34.348Z,12.9
2023-09-12T07:28:34.287Z,12.87
2023-09-12T07:29:34.288Z,13.09
2023-09-12T07:30:34.407Z,12.81
2023-09-12T07:31:34.352Z,12.91
2023-09-12T07:32:34.305Z,12.53
2023-09-12T07:33:34.385Z,12.71
2023-09-12T07:34:34.279Z,12.81
2023-09-12T07:35:34.318Z,13.08
2023-09-12T07:36:34.362Z,12.96
2023-09-12T07:37:34.334Z,12.93
2023-09-12T07:38:34.324Z,13.01
2023-09-12T07:39:34.352Z,12.86
2023-09-12T07:40:34.400Z,13.18
2023-09-12T07:41:34.337Z,13.14
2023-09-12T07:42:34.349Z,12.93
2023-09-12T07:43:34.343Z,13.04
2023-09-12T07:44:34.374Z,13.15
2023-09-12T07:45:36.053Z,13.39
2023-09-12T07:46:34.394Z,13.29
2023-09-12T07:47:34.371Z,13.12
2023-09-12T07:48:34.429Z,13.17
2023-09-12T07:49:34.376Z,13.35
2023-09-12T07:50:34.391Z,13.38
2023-09-12T07:51:34.415Z,13.19
2023-09-12T07:52:34.393Z,13.37
2023-09-12T07:53:34.378Z,13.47
2023-09-12T07:54:34.406Z,13.25
2023-09-12T07:55:34.415Z,12.83
2023-09-12T07:56:34.398Z,12.93
2023-09-12T07:57:34.464Z,12.99
2023-09-12T07:58:34.448Z,13.02
2023-09-12T07:59:34.379Z,13.3
2023-09-12T08:00:34.487Z,12.9
2023-09-12T08:01:34.489Z,12.94
2023-09-12T08:02:34.433Z,13.03
2023-09-12T08:03:34.545Z,13.16
2023-09-12T08:04:34.599Z,13.1
2023-09-12T08:05:34.486Z,12.94
2023-09-12T08:06:47.748Z,13.01
2023-09-12T08:07:34.442Z,13.11
2023-09-12T08:08:34.488Z,13.02
2023-09-12T08:09:34.505Z,12.98
2023-09-12T08:10:34.461Z,13.04
2023-09-12T08:11:34.466Z,13.04
2023-09-12T08:12:34.524Z,13.36
2023-09-12T08:13:34.505Z,13.3
2023-09-12T08:14:34.490Z,13.19
2023-09-12T08:15:34.571Z,13.22
2023-09-12T08:16:34.532Z,13.37
2023-09-12T08:17:34.523Z,13.42
2023-09-12T08:18:34.471Z,13.46
2023-09-12T08:19:34.480Z,13.47
2023-09-12T08:20:34.523Z,13.5
2023-09-12T08:21:34.540Z,13.24
2023-09-12T08:22:34.532Z,13.41
2023-09-12T08:23:34.496Z,13.72
2023-09-12T08:24:34.562Z,13.51
2023-09-12T08:25:34.547Z,13.57
2023-09-12T08:26:34.531Z,13.38
2023-09-12T08:27:34.563Z,13.65
2023-09-12T08:28:34.549Z,13.38
2023-09-12T08:29:34.523Z,13.57
2023-09-12T08:30:34.603Z,13.69
2023-09-12T08:31:34.566Z,13.58
2023-09-12T08:32:34.555Z,13.63
2023-09-12T08:33:34.642Z,13.61
2023-09-12T08:34:34.553Z,13.62
2023-09-12T08:35:34.593Z,13.59
2023-09-12T08:36:34.651Z,13.54
2023-09-12T08:37:34.586Z,13.64
2023-09-12T08:38:34.591Z,13.79
2023-09-12T08:39:34.589Z,13.66
2023-09-12T08:40:34.571Z,13.55
2023-09-12T08:41:34.587Z,13.62
2023-09-12T08:42:34.591Z,13.69
2023-09-12T08:43:34.572Z,13.83
2023-09-12T08:44:34.614Z,14.04
2023-09-12T08:45:34.716Z,13.7
2023-09-12T08:46:34.607Z,14.04
2023-09-12T08:47:34.636Z,13.63
2023-09-12T08:48:34.685Z,13.95
2023-09-12T08:49:34.619Z,14.07
2023-09-12T08:50:34.666Z,14.12
2023-09-12T08:51:34.716Z,13.77
2023-09-12T08:52:34.558Z,13.81
2023-09-12T08:53:34.615Z,13.55
2023-09-12T08:54:34.759Z,13.6
2023-09-12T08:55:34.685Z,13.58
2023-09-12T08:56:34.663Z,13.47
2023-09-12T08:57:34.672Z,13.49
2023-09-12T08:58:34.617Z,13.48
2023-09-12T08:59:34.695Z,13.43
2023-09-12T09:00:34.739Z,13.62
2023-09-12T09:01:34.704Z,13.87
2023-09-12T09:02:34.695Z,13.61
2023-09-12T09:03:34.762Z,13.73
2023-09-12T09:04:34.684Z,13.98
2023-09-12T09:05:34.804Z,13.83
2023-09-12T09:06:34.756Z,13.93
2023-09-12T09:07:34.735Z,13.8
2023-09-12T09:08:34.697Z,13.73
2023-09-12T09:09:34.730Z,13.8
2023-09-12T09:11:34.718Z,13.8
2023-09-12T09:12:34.688Z,13.96
2023-09-12T09:13:34.717Z,13.72
2023-09-12T09:14:34.725Z,13.86
2023-09-12T09:15:34.794Z,13.56
2023-09-12T09:16:34.761Z,13.7
2023-09-12T09:17:36.304Z,13.75
2023-09-12T09:18:34.841Z,13.73
2023-09-12T09:19:34.763Z,13.59
2023-09-12T09:20:34.791Z,14.04
2023-09-12T09:21:34.793Z,13.98
2023-09-12T09:22:34.739Z,13.76
2023-09-12T09:23:34.726Z,13.91
2023-09-12T09:24:34.804Z,13.74
2023-09-12T09:25:34.768Z,13.68
2023-09-12T09:26:35.073Z,13.81
2023-09-12T09:27:34.803Z,13.96
2023-09-12T09:28:34.790Z,13.97
2023-09-12T09:29:34.797Z,13.71
2023-09-12T09:30:34.850Z,13.73
2023-09-12T09:31:34.826Z,13.68
2023-09-12T09:32:34.831Z,13.6
2023-09-12T09:33:34.869Z,13.52
2023-09-12T09:34:34.819Z,13.66
2023-09-12T09:35:34.837Z,13.82
2023-09-12T09:36:34.833Z,13.77
2023-09-12T09:37:34.824Z,13.76
2023-09-12T09:38:34.821Z,13.65
2023-09-12T09:39:34.897Z,13.76
2023-09-12T09:40:34.874Z,14.01
2023-09-12T09:41:34.868Z,13.9
2023-09-12T09:42:34.906Z,13.93
2023-09-12T09:43:34.844Z,13.97
2023-09-12T09:44:34.835Z,13.97
2023-09-12T09:45:34.956Z,13.86
2023-09-12T09:46:34.841Z,13.73
2023-09-12T09:47:34.891Z,13.97
2023-09-12T09:48:34.925Z,14.13
2023-09-12T09:49:34.884Z,13.94
2023-09-12T09:50:34.879Z,13.81
2023-09-12T09:51:34.876Z,13.83
2023-09-12T09:52:34.875Z,13.61
2023-09-12T09:53:34.899Z,13.65
2023-09-12T09:54:35.022Z,13.67
2023-09-12T09:55:34.910Z,13.89
2023-09-12T09:56:34.926Z,14.08
2023-09-12T09:57:34.951Z,13.65
2023-09-12T09:58:34.931Z,13.65
2023-09-12T09:59:34.909Z,13.45
2023-09-12T10:00:34.959Z,13.63
2023-09-12T10:01:34.927Z,13.47
2023-09-12T10:02:34.981Z,13.56
2023-09-12T10:03:35.022Z,13.34
2023-09-12T10:04:47.185Z,13.36
2023-09-12T10:05:34.962Z,13.44
2023-09-12T10:06:34.932Z,13.56
2023-09-12T10:07:34.940Z,13.46
2023-09-12T10:08:34.959Z,13.72
2023-09-12T10:09:34.998Z,13.43
2023-09-12T10:10:34.982Z,13.37
2023-09-12T10:11:34.940Z,13.64
2023-09-12T10:12:35.000Z,13.63
2023-09-12T10:13:34.976Z,13.72
2023-09-12T10:14:34.994Z,13.62
2023-09-12T10:15:35.027Z,13.62
2023-09-12T10:16:35.015Z,13.65
2023-09-12T10:17:34.997Z,13.55
2023-09-12T10:18:35.100Z,13.53
2023-09-12T10:19:35.011Z,13.62
2023-09-12T10:20:35.020Z,13.75
2023-09-12T10:21:35.119Z,13.92
2023-09-12T10:22:35.086Z,13.61
2023-09-12T10:23:34.985Z,13.86
2023-09-12T10:24:35.065Z,13.85
2023-09-12T10:25:35.044Z,13.8
2023-09-12T10:26:35.007Z,13.98
2023-09-12T10:27:35.073Z,13.88
2023-09-12T10:28:35.063Z,13.91
2023-09-12T10:29:35.064Z,13.84
2023-09-12T10:30:35.072Z,13.84
2023-09-12T10:31:35.117Z,13.91
2023-09-12T10:32:35.083Z,14.03
2023-09-12T10:33:35.150Z,14.17
2023-09-12T10:34:34.989Z,14.03
2023-09-12T10:35:35.083Z,14.23
2023-09-12T10:36:35.079Z,14.03
2023-09-12T10:37:35.073Z,13.99
2023-09-12T10:38:35.024Z,13.94
2023-09-12T10:39:35.101Z,14.09
2023-09-12T10:40:35.616Z,14.06
2023-09-12T10:41:35.028Z,14.25
2023-09-12T10:42:35.100Z,14.12
2023-09-12T10:43:35.111Z,14.19
2023-09-12T10:44:35.116Z,14.49
2023-09-12T10:45:35.147Z,14.31
2023-09-12T10:46:35.238Z,14.33
2023-09-12T10:47:35.089Z,14.14
2023-09-12T10:48:35.175Z,14.02
2023-09-12T10:49:35.124Z,14.03
2023-09-12T10:50:35.104Z,13.76
2023-09-12T10:51:35.162Z,13.95
2023-09-12T10:52:35.152Z,14.04
2023-09-12T10:53:35.162Z,14.12
2023-09-12T10:54:35.165Z,14.06
2023-09-12T10:55:35.171Z,14.2
2023-09-12T10:56:35.175Z,14.14
2023-09-12T10:57:35.201Z,14.15
2023-09-12T10:58:35.160Z,13.91
2023-09-12T10:59:35.182Z,14.15
2023-09-12T11:00:35.323Z,14.23
2023-09-12T11:01:35.257Z,14.05
2023-09-12T11:02:35.211Z,14
2023-09-12T11:03:35.307Z,14.35
2023-09-12T11:04:35.263Z,13.85
2023-09-12T11:05:35.203Z,14.09
2023-09-12T11:06:35.192Z,14.13
2023-09-12T11:07:35.196Z,14.1
2023-09-12T11:08:35.213Z,13.99
2023-09-12T11:09:35.208Z,14.22
2023-09-12T11:10:35.205Z,13.89
2023-09-12T11:11:35.209Z,14.29
2023-09-12T11:12:35.256Z,14.58
2023-09-12T11:13:35.201Z,14.28
2023-09-12T11:14:35.258Z,14.16
2023-09-12T11:15:35.273Z,14.05
2023-09-12T11:16:35.267Z,14.13
2023-09-12T11:17:35.247Z,14.06
2023-09-12T11:18:35.286Z,13.96
2023-09-12T11:19:35.250Z,14.19
2023-09-12T11:20:35.273Z,14.28
2023-09-12T11:21:35.323Z,14.22
2023-09-12T11:22:35.214Z,14.15
2023-09-12T11:23:35.256Z,14.2
2023-09-12T11:24:35.322Z,14.24
2023-09-12T11:25:35.298Z,14.04
2023-09-12T11:26:35.297Z,14.04
2023-09-12T11:27:35.359Z,13.98
2023-09-12T11:28:35.287Z,13.9
2023-09-12T11:29:35.283Z,13.87
2023-09-12T11:30:35.377Z,14.09
2023-09-12T11:31:35.341Z,13.96
2023-09-12T11:32:35.404Z,13.9
2023-09-12T11:33:35.446Z,13.91
2023-09-12T11:34:35.269Z,14.1
2023-09-12T11:35:35.324Z,14.34
2023-09-12T11:36:35.339Z,14.13
2023-09-12T11:37:35.264Z,13.75
2023-09-12T11:38:35.339Z,13.93
2023-09-12T11:39:35.398Z,13.93
2023-09-12T11:40:35.328Z,14.05
2023-09-12T11:41:35.338Z,13.89
2023-09-12T11:42:35.409Z,13.72
2023-09-12T11:43:35.354Z,13.81
2023-09-12T11:44:35.343Z,13.8
2023-09-12T11:45:35.396Z,13.94
2023-09-12T11:46:35.528Z,13.86
2023-09-12T11:47:35.398Z,13.75
2023-09-12T11:48:35.466Z,13.78
2023-09-12T11:49:35.425Z,13.9
2023-09-12T11:50:35.441Z,13.79
2023-09-12T11:51:35.408Z,13.86
2023-09-12T11:52:35.392Z,13.6
2023-09-12T11:53:35.361Z,13.65
2023-09-12T11:54:35.399Z,13.39
2023-09-12T11:55:35.412Z,13.37
2023-09-12T11:56:35.406Z,13.43
2023-09-12T11:57:35.486Z,13.47
2023-09-12T11:58:35.434Z,13.24
2023-09-12T11:59:35.409Z,13.37
2023-09-12T12:00:35.463Z,13.57
2023-09-12T12:01:35.442Z,13.79
2023-09-12T12:02:35.414Z,13.26
2023-09-12T12:03:35.569Z,13.42
2023-09-12T12:04:35.592Z,13.18
2023-09-12T12:05:35.466Z,13.43
2023-09-12T12:06:35.460Z,12.41
2023-09-12T12:07:35.435Z,12.68
2023-09-12T12:08:35.449Z,12.34
2023-09-12T12:09:35.447Z,12.6
2023-09-12T12:10:35.495Z,12.69
2023-09-12T12:11:35.466Z,12.91
2023-09-12T12:12:35.469Z,12.4
2023-09-12T12:13:35.441Z,12.4
2023-09-12T12:14:35.458Z,12.54
2023-09-12T12:15:35.627Z,12.68
2023-09-12T12:16:35.535Z,12.26
2023-09-12T12:17:35.479Z,12.51
2023-09-12T12:18:35.496Z,12.32
2023-09-12T12:19:35.501Z,12.49
2023-09-12T12:20:35.525Z,12.19
2023-09-12T12:21:37.632Z,12.31
2023-09-12T12:22:35.488Z,12.04
2023-09-12T12:23:35.479Z,12.38
2023-09-12T12:24:35.510Z,11.99
2023-09-12T12:25:35.524Z,12.31
2023-09-12T12:26:35.519Z,12.46
2023-09-12T12:27:35.544Z,12.56
2023-09-12T12:28:35.537Z,12.65
2023-09-12T12:29:35.506Z,12.9
2023-09-12T12:30:35.663Z,12.36
2023-09-12T12:31:35.600Z,12.4
2023-09-12T12:32:35.563Z,12.19
2023-09-12T12:34:03.950Z,12.38
2023-09-12T12:35:08.959Z,12.14
2023-09-12T12:35:46.523Z,12.25
2023-09-12T12:36:40.720Z,12.56
2023-09-12T12:37:35.578Z,12.17
2023-09-12T12:38:36.246Z,12.52
2023-09-12T12:39:35.648Z,12.29
2023-09-12T12:40:43.780Z,12.26
